createdAt,value
2019-04-07T00:02:04.760Z,7.25
2019-04-07T00:04:32.969Z,6.15
2019-04-07T00:07:01.194Z,7.45
2019-04-07T00:09:29.312Z,7.70
2019-04-07T00:11:56.704Z,6.50
2019-04-07T00:14:24.007Z,8.13
2019-04-07T00:16:51.802Z,6.83
2019-04-07T00:19:19.234Z,6.90
2019-04-07T00:21:46.838Z,7.47
2019-04-07T00:24:14.329Z,6.33
2019-04-07T00:26:41.646Z,7.15
2019-04-07T00:29:09.058Z,7.20
2019-04-07T00:31:36.472Z,6.53
2019-04-07T00:34:03.982Z,6.67
2019-04-07T00:36:31.387Z,5.70
2019-04-07T00:38:59.402Z,6.45
2019-04-07T00:41:27.501Z,6.17
2019-04-07T00:43:55.113Z,5.92
2019-04-07T00:46:22.533Z,6.70
2019-04-07T00:48:49.942Z,6.50
2019-04-07T00:51:17.853Z,5.92
2019-04-07T00:53:45.446Z,6.45
2019-04-07T00:56:13.179Z,6.22
2019-04-07T00:58:40.659Z,7.35
2019-04-07T01:01:09.110Z,6.62
2019-04-07T01:03:36.573Z,6.35
2019-04-07T01:06:03.973Z,6.25
2019-04-07T01:08:31.273Z,6.30
2019-04-07T01:10:58.614Z,6.42
2019-04-07T01:13:26.291Z,6.87
2019-04-07T01:15:54.869Z,6.28
2019-04-07T01:18:23.115Z,6.35
2019-04-07T01:20:50.561Z,6.72
2019-04-07T01:23:18.204Z,6.45
2019-04-07T01:25:45.726Z,6.72
2019-04-07T01:28:13.177Z,6.12
2019-04-07T01:30:40.588Z,6.17
2019-04-07T01:33:08.720Z,7.60
2019-04-07T01:35:45.584Z,6.55
2019-04-07T01:38:05.926Z,6.17
2019-04-07T01:40:33.789Z,6.12
2019-04-07T01:43:19.741Z,6.03
2019-04-07T01:46:09.888Z,6.10
2019-04-07T01:48:48.744Z,5.50
2019-04-07T01:51:34.241Z,5.97
2019-04-07T01:54:20.789Z,6.50
2019-04-07T01:57:05.841Z,6.08
2019-04-07T01:59:54.046Z,5.95
2019-04-07T02:02:41.316Z,5.60
2019-04-07T02:05:40.808Z,6.45
2019-04-07T02:08:30.832Z,5.80
2019-04-07T02:11:07.355Z,6.37
2019-04-07T02:13:47.262Z,7.00
2019-04-07T02:16:34.452Z,7.65
2019-04-07T02:19:27.794Z,6.30
2019-04-07T02:22:15.799Z,6.58
2019-04-07T02:25:06.356Z,5.70
2019-04-07T02:27:53.438Z,6.45
2019-04-07T02:30:55.067Z,5.85
2019-04-07T02:33:40.544Z,5.92
2019-04-07T02:36:31.772Z,5.78
2019-04-07T02:39:34.695Z,6.05
2019-04-07T02:42:37.120Z,6.40
2019-04-07T02:45:24.754Z,5.53
2019-04-07T02:48:18.117Z,6.17
2019-04-07T02:51:07.966Z,5.55
2019-04-07T02:53:46.953Z,6.75
2019-04-07T02:56:30.467Z,6.05
2019-04-07T02:59:12.899Z,6.03
2019-04-07T03:01:50.384Z,5.20
2019-04-07T03:04:25.170Z,5.65
2019-04-07T03:07:25.073Z,5.87
2019-04-07T03:10:10.858Z,6.10
2019-04-07T03:12:57.516Z,5.72
2019-04-07T03:15:44.568Z,6.35
2019-04-07T03:18:27.583Z,6.28
2019-04-07T03:21:20.610Z,5.78
2019-04-07T03:24:06.907Z,5.60
2019-04-07T03:27:12.303Z,6.55
2019-04-07T03:29:49.300Z,6.20
2019-04-07T03:32:55.155Z,6.45
2019-04-07T03:35:30.505Z,5.90
2019-04-07T03:38:16.374Z,6.30
2019-04-07T03:40:49.447Z,5.65
2019-04-07T03:43:30.468Z,6.53
2019-04-07T03:46:17.202Z,8.30
2019-04-07T03:48:49.601Z,6.33
2019-04-07T03:51:49.545Z,6.95
2019-04-07T03:54:40.844Z,5.60
2019-04-07T03:57:31.165Z,6.30
2019-04-07T04:00:25.478Z,6.10
2019-04-07T04:03:00.463Z,5.72
2019-04-07T04:05:59.644Z,6.42
2019-04-07T04:09:04.872Z,5.60
2019-04-07T04:11:40.511Z,6.70
2019-04-07T04:14:16.976Z,6.65
2019-04-07T04:16:49.037Z,6.22
2019-04-07T04:19:16.833Z,6.90
2019-04-07T04:21:44.504Z,7.35
2019-04-07T04:24:12.280Z,5.60
2019-04-07T04:26:40.249Z,6.75
2019-04-07T04:29:08.326Z,7.50
2019-04-07T04:31:36.784Z,7.08
2019-04-07T04:34:05.422Z,7.53
2019-04-07T04:36:33.504Z,7.08
2019-04-07T04:39:01.018Z,7.15
2019-04-07T04:41:29.344Z,7.03
2019-04-07T04:43:57.934Z,7.53
2019-04-07T04:46:25.911Z,7.83
2019-04-07T04:48:54.559Z,7.97
2019-04-07T04:51:22.753Z,6.83
2019-04-07T04:53:50.399Z,7.47
2019-04-07T04:56:18.617Z,7.17
2019-04-07T04:58:46.193Z,6.78
2019-04-07T05:01:13.597Z,7.90
2019-04-07T05:03:41.764Z,7.30
2019-04-07T05:06:10.031Z,7.50
2019-04-07T05:08:37.894Z,8.10
2019-04-07T05:11:05.480Z,7.00
2019-04-07T05:13:33.150Z,8.03
2019-04-07T05:16:00.554Z,7.80
2019-04-07T05:18:28.060Z,7.12
2019-04-07T05:20:55.490Z,9.73
2019-04-07T05:23:23.112Z,6.80
2019-04-07T05:25:50.590Z,7.00
2019-04-07T05:28:18.037Z,7.28
2019-04-07T05:30:45.684Z,8.93
2019-04-07T05:33:13.984Z,9.10
2019-04-07T05:35:41.540Z,8.80
2019-04-07T05:38:09.394Z,9.20
2019-04-07T05:40:36.842Z,9.08
2019-04-07T05:43:04.736Z,8.95
2019-04-07T05:45:35.517Z,9.05
2019-04-07T05:48:01.579Z,9.40
2019-04-07T05:50:29.615Z,9.40
2019-04-07T05:52:57.559Z,9.90
2019-04-07T05:55:25.079Z,10.25
2019-04-07T05:57:53.150Z,10.75
2019-04-07T06:00:20.893Z,9.10
2019-04-07T06:02:48.528Z,9.08
2019-04-07T06:05:17.485Z,8.60
2019-04-07T06:07:45.807Z,8.45
2019-04-07T06:10:14.452Z,7.92
2019-04-07T06:12:46.041Z,8.38
2019-04-07T06:15:11.751Z,7.17
2019-04-07T06:17:39.174Z,8.40
2019-04-07T06:20:06.847Z,8.30
2019-04-07T06:22:34.961Z,7.45
2019-04-07T06:25:04.213Z,8.98
2019-04-07T06:27:32.486Z,8.30
2019-04-07T06:30:00.172Z,7.15
2019-04-07T06:32:28.280Z,6.85
2019-04-07T06:34:55.650Z,7.83
2019-04-07T06:37:28.838Z,8.00
2019-04-07T06:39:52.606Z,7.92
2019-04-07T06:42:20.824Z,7.33
2019-04-07T06:44:51.113Z,8.03
2019-04-07T06:47:23.799Z,7.20
2019-04-07T06:50:09.700Z,7.70
2019-04-07T06:53:17.059Z,7.42
2019-04-07T06:56:00.052Z,7.30
2019-04-07T06:58:58.131Z,7.15
2019-04-07T07:02:00.397Z,7.33
2019-04-07T07:04:46.577Z,6.95
2019-04-07T07:07:43.538Z,6.72
2019-04-07T07:10:37.746Z,5.40
2019-04-07T07:13:29.896Z,5.50
2019-04-07T07:16:03.143Z,5.00
2019-04-07T07:18:40.287Z,5.97
2019-04-07T07:21:25.753Z,5.50
2019-04-07T07:23:53.367Z,4.70
2019-04-07T07:26:21.757Z,5.08
2019-04-07T07:28:49.433Z,4.70
2019-04-07T07:31:18.112Z,4.37
2019-04-07T07:33:45.697Z,4.15
2019-04-07T07:36:13.381Z,4.03
2019-04-07T07:38:40.850Z,4.67
2019-04-07T07:41:08.891Z,4.70
2019-04-07T07:43:36.973Z,4.97
2019-04-07T07:46:04.623Z,4.00
2019-04-07T07:48:32.327Z,4.20
2019-04-07T07:51:00.076Z,4.28
2019-04-07T07:53:28.630Z,3.83
2019-04-07T07:55:56.540Z,4.20
2019-04-07T07:58:27.950Z,3.22
2019-04-07T08:00:53.523Z,3.45
2019-04-07T08:03:22.856Z,3.20
2019-04-07T08:05:51.172Z,3.87
2019-04-07T08:08:18.796Z,3.52
2019-04-07T08:10:46.367Z,3.22
2019-04-07T08:13:13.677Z,3.65
2019-04-07T08:15:41.673Z,4.20
2019-04-07T08:18:09.718Z,4.00
2019-04-07T08:20:37.449Z,3.77
2019-04-07T08:23:05.352Z,3.90
2019-04-07T08:25:33.541Z,4.72
2019-04-07T08:28:04.274Z,4.25
2019-04-07T08:30:30.674Z,3.92
2019-04-07T08:33:00.230Z,4.33
2019-04-07T08:35:28.764Z,3.72
2019-04-07T08:37:56.773Z,3.98
2019-04-07T08:40:25.262Z,4.00
2019-04-07T08:42:52.974Z,4.10
2019-04-07T08:45:21.266Z,4.15
2019-04-07T08:47:50.025Z,4.72
2019-04-07T08:50:20.817Z,5.08
2019-04-07T08:52:47.849Z,5.22
2019-04-07T08:55:15.576Z,3.80
2019-04-07T08:57:43.483Z,4.25
2019-04-07T09:00:17.403Z,3.35
2019-04-07T09:02:46.601Z,4.17
2019-04-07T09:05:16.275Z,4.60
2019-04-07T09:07:45.898Z,3.60
2019-04-07T09:10:20.431Z,4.03
2019-04-07T09:12:47.422Z,4.53
2019-04-07T09:15:22.452Z,4.07
2019-04-07T09:17:56.680Z,4.93
2019-04-07T09:20:41.913Z,4.20
2019-04-07T09:23:25.674Z,3.93
2019-04-07T09:26:12.012Z,5.07
2019-04-07T09:28:48.727Z,4.83
2019-04-07T09:31:34.966Z,3.80
2019-04-07T09:34:22.049Z,4.20
2019-04-07T09:37:02.314Z,4.40
2019-04-07T09:40:04.244Z,4.60
2019-04-07T09:43:01.095Z,4.47
2019-04-07T09:45:48.000Z,4.23
2019-04-07T09:48:33.547Z,4.87
2019-04-07T09:51:10.045Z,4.73
2019-04-07T09:54:00.309Z,4.27
2019-04-07T09:57:03.359Z,4.10
2019-04-07T09:59:54.514Z,4.40
2019-04-07T10:02:39.802Z,5.17
2019-04-07T10:05:22.031Z,5.30
2019-04-07T10:08:11.979Z,5.23
2019-04-07T10:10:59.590Z,4.67
2019-04-07T10:13:39.842Z,4.53
2019-04-07T10:16:25.760Z,5.67
2019-04-07T10:19:13.118Z,5.23
2019-04-07T10:22:03.622Z,4.63
2019-04-07T10:24:55.983Z,5.60
2019-04-07T10:27:34.443Z,5.23
2019-04-07T10:30:11.246Z,4.80
2019-04-07T10:32:52.042Z,4.40
2019-04-07T10:35:27.051Z,4.57
2019-04-07T10:38:02.043Z,4.53
2019-04-07T10:40:46.610Z,4.17
2019-04-07T10:43:24.067Z,4.33
2019-04-07T10:46:17.932Z,5.10
2019-04-07T10:48:53.651Z,4.23
2019-04-07T10:51:33.197Z,4.80
2019-04-07T10:54:15.671Z,4.87
2019-04-07T10:57:02.222Z,4.73
2019-04-07T10:59:55.740Z,5.20
2019-04-07T11:02:36.455Z,4.40
2019-04-07T11:05:14.114Z,5.10
2019-04-07T11:08:03.783Z,4.70
2019-04-07T11:10:50.843Z,4.43
2019-04-07T11:13:33.151Z,4.90
2019-04-07T11:16:06.923Z,5.07
2019-04-07T11:18:51.781Z,5.23
2019-04-07T11:21:35.961Z,4.90
2019-04-07T11:24:13.703Z,4.73
2019-04-07T11:27:03.761Z,5.50
2019-04-07T11:29:42.487Z,5.20
2019-04-07T11:32:30.415Z,4.83
2019-04-07T11:35:11.991Z,4.80
2019-04-07T11:37:46.219Z,5.10
2019-04-07T11:40:42.563Z,5.53
2019-04-07T11:43:08.774Z,5.30
2019-04-07T11:45:59.716Z,5.30
2019-04-07T11:48:44.978Z,5.17
2019-04-07T11:51:26.498Z,5.63
2019-04-07T11:54:28.422Z,5.50
2019-04-07T11:57:03.266Z,5.30
2019-04-07T11:59:44.758Z,5.30
2019-04-07T12:02:36.277Z,7.30
2019-04-07T12:05:23.476Z,5.90
2019-04-07T12:08:24.579Z,6.10
2019-04-07T12:11:04.934Z,5.10
2019-04-07T12:13:37.457Z,6.20
2019-04-07T12:16:14.679Z,5.70
2019-04-07T12:19:00.151Z,6.30
2019-04-07T12:21:39.395Z,5.57
2019-04-07T12:24:30.619Z,6.10
2019-04-07T12:27:27.481Z,5.73
2019-04-07T12:30:10.351Z,6.20
2019-04-07T12:32:55.646Z,6.40
2019-04-07T12:35:35.345Z,5.20
2019-04-07T12:38:28.418Z,5.80
2019-04-07T12:41:21.007Z,5.83
2019-04-07T12:44:08.007Z,6.23
2019-04-07T12:46:54.080Z,5.63
2019-04-07T12:49:45.778Z,6.20
2019-04-07T12:52:32.554Z,5.80
2019-04-07T12:55:26.871Z,5.83
2019-04-07T12:58:13.741Z,5.83
2019-04-07T13:01:15.275Z,5.50
2019-04-07T13:04:01.962Z,4.97
2019-04-07T13:06:57.802Z,5.47
2019-04-07T13:09:54.749Z,5.63
2019-04-07T13:12:44.741Z,5.57
2019-04-07T13:15:29.845Z,5.20
2019-04-07T13:18:10.719Z,4.70
2019-04-07T13:21:02.219Z,5.00
2019-04-07T13:23:42.852Z,6.03
2019-04-07T13:26:17.574Z,5.40
2019-04-07T13:28:58.713Z,5.87
2019-04-07T13:31:49.161Z,5.70
2019-04-07T13:34:34.821Z,6.53
2019-04-07T13:37:20.569Z,5.63
2019-04-07T13:40:10.061Z,6.57
2019-04-07T13:42:57.352Z,5.93
2019-04-07T13:46:01.259Z,6.47
2019-04-07T13:48:56.942Z,5.87
2019-04-07T13:51:44.804Z,5.27
2019-04-07T13:54:37.224Z,5.20
2019-04-07T13:57:30.718Z,4.83
2019-04-07T14:00:27.375Z,5.07
2019-04-07T14:03:01.408Z,5.87
2019-04-07T14:05:38.829Z,5.40
2019-04-07T14:08:26.350Z,5.40
2019-04-07T14:11:12.271Z,6.03
2019-04-07T14:14:01.907Z,5.47
2019-04-07T14:16:51.719Z,5.77
2019-04-07T14:19:38.723Z,7.20
2019-04-07T14:22:32.185Z,5.20
2019-04-07T14:25:25.725Z,6.30
2019-04-07T14:28:28.591Z,5.30
2019-04-07T14:31:29.350Z,5.87
2019-04-07T14:34:22.987Z,6.40
2019-04-07T14:37:27.453Z,6.70
2019-04-07T14:40:08.519Z,5.80
2019-04-07T14:42:42.862Z,6.27
2019-04-07T14:45:34.103Z,6.70
2019-04-07T14:48:17.409Z,6.57
2019-04-07T14:51:03.709Z,7.10
2019-04-07T14:53:53.029Z,7.00
2019-04-07T14:56:46.709Z,6.90
2019-04-07T14:59:38.370Z,7.17
2019-04-07T15:02:09.188Z,6.20
2019-04-07T15:04:47.716Z,6.90
2019-04-07T15:07:41.904Z,6.80
2019-04-07T15:10:18.174Z,7.50
2019-04-07T15:12:49.089Z,7.60
2019-04-07T15:15:17.592Z,7.30
2019-04-07T15:17:45.742Z,7.47
2019-04-07T15:20:14.599Z,7.10
2019-04-07T15:22:46.035Z,6.70
2019-04-07T15:25:12.890Z,6.73
2019-04-07T15:27:40.482Z,6.43
2019-04-07T15:30:10.596Z,7.47
2019-04-07T15:32:38.370Z,6.67
2019-04-07T15:35:07.192Z,6.40
2019-04-07T15:37:35.763Z,6.80
2019-04-07T15:40:06.906Z,6.03
2019-04-07T15:42:41.799Z,6.10
2019-04-07T15:45:05.039Z,6.63
2019-04-07T15:47:33.357Z,6.10
2019-04-07T15:50:01.559Z,6.30
2019-04-07T15:52:30.887Z,5.97
2019-04-07T15:54:59.501Z,5.10
2019-04-07T15:57:27.330Z,5.00
2019-04-07T15:59:54.930Z,5.17
2019-04-07T16:02:23.569Z,5.90
2019-04-07T16:04:52.424Z,6.03
2019-04-07T16:07:21.365Z,5.50
2019-04-07T16:09:54.676Z,5.43
2019-04-07T16:12:19.714Z,5.50
2019-04-07T16:14:48.083Z,6.00
2019-04-07T16:17:16.949Z,6.13
2019-04-07T16:19:50.830Z,5.90
2019-04-07T16:22:16.856Z,5.47
2019-04-07T16:24:46.120Z,6.30
2019-04-07T16:27:15.130Z,6.00
2019-04-07T16:29:46.103Z,6.53
2019-04-07T16:32:13.522Z,6.23
2019-04-07T16:34:42.437Z,5.43
2019-04-07T16:37:10.582Z,6.17
2019-04-07T16:39:38.780Z,6.90
2019-04-07T16:42:06.576Z,6.30
2019-04-07T16:44:36.230Z,5.70
2019-04-07T16:47:04.177Z,7.03
2019-04-07T16:49:32.601Z,6.20
2019-04-07T16:52:02.179Z,6.50
2019-04-07T16:54:30.177Z,6.07
2019-04-07T16:56:58.671Z,5.83
2019-04-07T16:59:26.417Z,5.80
2019-04-07T17:01:54.939Z,6.60
2019-04-07T17:04:22.689Z,6.30
2019-04-07T17:06:59.558Z,5.70
2019-04-07T17:09:23.132Z,6.50
2019-04-07T17:11:50.405Z,6.60
2019-04-07T17:14:18.426Z,5.60
2019-04-07T17:16:47.232Z,6.03
2019-04-07T17:19:15.111Z,5.90
2019-04-07T17:21:42.885Z,6.70
2019-04-07T17:24:11.113Z,6.10
2019-04-07T17:26:39.359Z,6.57
2019-04-07T17:29:07.806Z,6.50
2019-04-07T17:31:35.867Z,6.47
2019-04-07T17:34:07.385Z,6.30
2019-04-07T17:36:33.222Z,5.50
2019-04-07T17:39:26.659Z,5.83
2019-04-07T17:41:55.249Z,6.00
2019-04-07T17:44:43.459Z,5.83
2019-04-07T17:47:31.571Z,5.77
2019-04-07T17:50:20.021Z,5.73
2019-04-07T17:53:17.394Z,5.87
2019-04-07T17:56:17.920Z,5.40
2019-04-07T17:58:54.612Z,5.23
2019-04-07T18:01:55.450Z,6.27
2019-04-07T18:04:51.209Z,5.80
2019-04-07T18:07:51.807Z,6.97
2019-04-07T18:10:57.856Z,7.23
2019-04-07T18:13:56.613Z,5.80
2019-04-07T18:16:53.290Z,6.80
2019-04-07T18:19:43.470Z,6.27
2019-04-07T18:22:33.482Z,5.70
2019-04-07T18:25:08.491Z,5.53
2019-04-07T18:27:48.237Z,5.77
2019-04-07T18:30:25.887Z,5.70
2019-04-07T18:33:13.019Z,5.73
2019-04-07T18:39:52.390Z,7.13
2019-04-07T18:43:24.538Z,6.47
2019-04-07T18:46:46.740Z,5.77
2019-04-07T18:50:12.176Z,5.70
2019-04-07T18:53:36.313Z,5.70
2019-04-07T18:57:02.025Z,5.60
2019-04-07T19:07:35.774Z,6.43
2019-04-07T19:11:01.503Z,6.43
2019-04-07T19:14:26.097Z,6.93
2019-04-07T19:17:17.027Z,7.70
2019-04-07T19:21:09.792Z,8.20
2019-04-07T19:24:41.617Z,7.20
2019-04-07T19:27:21.176Z,8.40
2019-04-07T19:30:14.415Z,8.30
2019-04-07T19:33:07.764Z,8.47
2019-04-07T19:35:57.948Z,7.43
2019-04-07T19:38:54.322Z,7.10
2019-04-07T19:41:50.801Z,7.10
2019-04-07T19:44:40.073Z,6.90
2019-04-07T19:47:38.385Z,8.40
2019-04-07T19:50:23.170Z,9.80
2019-04-07T19:53:20.337Z,12.03
2019-04-07T19:56:10.458Z,12.93
2019-04-07T19:58:49.822Z,11.97
2019-04-07T20:01:35.741Z,10.67
2019-04-07T20:04:34.885Z,9.40
2019-04-07T20:07:37.621Z,9.07
2019-04-07T20:10:40.208Z,7.87
2019-04-07T20:13:36.556Z,7.87
2019-04-07T20:16:24.137Z,7.60
2019-04-07T20:19:11.363Z,7.50
2019-04-07T20:21:58.474Z,6.70
2019-04-07T20:24:47.562Z,7.33
2019-04-07T20:27:33.969Z,6.37
2019-04-07T20:30:29.406Z,8.10
2019-04-07T20:33:15.112Z,7.50
2019-04-07T20:36:04.806Z,7.57
2019-04-07T20:38:57.929Z,7.57
2019-04-07T20:41:35.886Z,12.60
2019-04-07T20:44:33.683Z,9.97
2019-04-07T20:47:15.603Z,8.00
2019-04-07T20:50:07.546Z,8.90
2019-04-07T20:52:48.135Z,8.33
2019-04-07T20:55:50.731Z,7.12
2019-04-07T20:58:47.294Z,8.18
2019-04-07T21:01:42.917Z,7.33
2019-04-07T21:04:34.254Z,8.43
